sensor_id;sensor_type;location;lat;lon;timestamp;temperature;humidity
37242;DHT22;23135;51.078;12.108;2023-12-20T00:02:16;5.00;99.90
37242;DHT22;23135;51.078;12.108;2023-12-20T00:04:42;4.90;99.90
37242;DHT22;23135;51.078;12.108;2023-12-20T00:07:07;4.90;99.90
37242;DHT22;23135;51.078;12.108;2023-12-20T00:09:33;4.90;99.90
37242;DHT22;23135;51.078;12.108;2023-12-20T00:11:58;4.90;99.90
37242;DHT22;23135;51.078;12.108;2023-12-20T00:14:24;4.90;99.90
37242;DHT22;23135;51.078;12.108;2023-12-20T00:16:49;4.90;99.90
37242;DHT22;23135;51.078;12.108;2023-12-20T00:19:15;4.80;99.90
37242;DHT22;23135;51.078;12.108;2023-12-20T00:21:40;4.90;99.90
37242;DHT22;23135;51.078;12.108;2023-12-20T00:24:06;4.80;99.90
37242;DHT22;23135;51.078;12.108;2023-12-20T00:26:32;4.80;99.90
37242;DHT22;23135;51.078;12.108;2023-12-20T00:28:57;4.80;99.90
37242;DHT22;23135;51.078;12.108;2023-12-20T00:31:23;4.80;99.90
37242;DHT22;23135;51.078;12.108;2023-12-20T00:33:48;4.80;99.90
37242;DHT22;23135;51.078;12.108;2023-12-20T00:36:14;4.80;99.90
37242;DHT22;23135;51.078;12.108;2023-12-20T00:38:40;4.80;99.90
37242;DHT22;23135;51.078;12.108;2023-12-20T00:41:05;4.80;99.90
37242;DHT22;23135;51.078;12.108;2023-12-20T00:43:31;4.80;99.90
37242;DHT22;23135;51.078;12.108;2023-12-20T00:45:57;4.80;99.90
37242;DHT22;23135;51.078;12.108;2023-12-20T00:48:23;4.70;99.90
37242;DHT22;23135;51.078;12.108;2023-12-20T00:50:48;4.70;99.90
37242;DHT22;23135;51.078;12.108;2023-12-20T00:53:14;4.80;99.90
37242;DHT22;23135;51.078;12.108;2023-12-20T00:55:39;4.70;99.90
37242;DHT22;23135;51.078;12.108;2023-12-20T00:58:05;4.70;99.90
37242;DHT22;23135;51.078;12.108;2023-12-20T01:00:31;4.80;99.90
37242;DHT22;23135;51.078;12.108;2023-12-20T01:02:57;4.80;99.90
37242;DHT22;23135;51.078;12.108;2023-12-20T01:05:22;4.70;99.90
37242;DHT22;23135;51.078;12.108;2023-12-20T01:07:48;4.70;99.90
37242;DHT22;23135;51.078;12.108;2023-12-20T01:10:14;4.70;99.90
37242;DHT22;23135;51.078;12.108;2023-12-20T01:12:40;4.70;99.90
37242;DHT22;23135;51.078;12.108;2023-12-20T01:15:06;4.70;99.90
37242;DHT22;23135;51.078;12.108;2023-12-20T01:17:31;4.70;99.90
37242;DHT22;23135;51.078;12.108;2023-12-20T01:19:57;4.70;99.90
37242;DHT22;23135;51.078;12.108;2023-12-20T01:22:23;4.70;99.90
37242;DHT22;23135;51.078;12.108;2023-12-20T01:24:49;4.70;99.90
37242;DHT22;23135;51.078;12.108;2023-12-20T01:27:14;4.70;99.90
37242;DHT22;23135;51.078;12.108;2023-12-20T01:29:40;4.70;99.90
37242;DHT22;23135;51.078;12.108;2023-12-20T01:32:06;4.70;99.90
37242;DHT22;23135;51.078;12.108;2023-12-20T01:34:32;4.70;99.90
37242;DHT22;23135;51.078;12.108;2023-12-20T01:36:57;4.70;99.90
37242;DHT22;23135;51.078;12.108;2023-12-20T01:39:23;4.70;99.90
37242;DHT22;23135;51.078;12.108;2023-12-20T01:41:48;4.70;99.90
37242;DHT22;23135;51.078;12.108;2023-12-20T01:44:14;4.70;99.90
37242;DHT22;23135;51.078;12.108;2023-12-20T01:46:40;4.70;99.90
37242;DHT22;23135;51.078;12.108;2023-12-20T01:49:06;4.60;99.90
37242;DHT22;23135;51.078;12.108;2023-12-20T01:51:33;4.70;99.90
37242;DHT22;23135;51.078;12.108;2023-12-20T01:53:59;4.70;99.90
37242;DHT22;23135;51.078;12.108;2023-12-20T01:56:26;4.70;99.90
37242;DHT22;23135;51.078;12.108;2023-12-20T01:58:53;4.70;99.90
37242;DHT22;23135;51.078;12.108;2023-12-20T02:01:20;4.70;99.90
37242;DHT22;23135;51.078;12.108;2023-12-20T02:03:46;4.70;99.90
37242;DHT22;23135;51.078;12.108;2023-12-20T02:06:12;4.70;99.90
37242;DHT22;23135;51.078;12.108;2023-12-20T02:08:37;4.70;99.90
37242;DHT22;23135;51.078;12.108;2023-12-20T02:11:03;4.70;99.90
37242;DHT22;23135;51.078;12.108;2023-12-20T02:13:30;4.70;99.90
37242;DHT22;23135;51.078;12.108;2023-12-20T02:15:55;4.80;99.90
37242;DHT22;23135;51.078;12.108;2023-12-20T02:18:21;4.80;99.90
37242;DHT22;23135;51.078;12.108;2023-12-20T02:20:47;4.80;99.90
37242;DHT22;23135;51.078;12.108;2023-12-20T02:23:12;4.80;99.90
37242;DHT22;23135;51.078;12.108;2023-12-20T02:25:38;4.80;99.90
37242;DHT22;23135;51.078;12.108;2023-12-20T02:28:05;4.80;99.90
37242;DHT22;23135;51.078;12.108;2023-12-20T02:30:30;4.80;99.90
37242;DHT22;23135;51.078;12.108;2023-12-20T02:32:56;4.80;99.90
37242;DHT22;23135;51.078;12.108;2023-12-20T02:35:22;4.80;99.90
37242;DHT22;23135;51.078;12.108;2023-12-20T02:37:48;4.80;99.90
37242;DHT22;23135;51.078;12.108;2023-12-20T02:40:13;4.80;99.90
37242;DHT22;23135;51.078;12.108;2023-12-20T02:42:39;4.80;99.90
37242;DHT22;23135;51.078;12.108;2023-12-20T02:45:05;4.90;99.90
37242;DHT22;23135;51.078;12.108;2023-12-20T02:47:31;4.90;99.90
37242;DHT22;23135;51.078;12.108;2023-12-20T02:49:56;4.90;99.90
37242;DHT22;23135;51.078;12.108;2023-12-20T02:52:23;4.90;99.90
37242;DHT22;23135;51.078;12.108;2023-12-20T02:54:49;4.90;99.90
37242;DHT22;23135;51.078;12.108;2023-12-20T02:57:15;4.90;99.90
37242;DHT22;23135;51.078;12.108;2023-12-20T02:59:40;4.90;99.90
37242;DHT22;23135;51.078;12.108;2023-12-20T03:02:06;4.90;99.90
37242;DHT22;23135;51.078;12.108;2023-12-20T03:04:31;4.90;99.90
37242;DHT22;23135;51.078;12.108;2023-12-20T03:06:57;4.90;99.90
37242;DHT22;23135;51.078;12.108;2023-12-20T03:09:22;4.90;99.90
37242;DHT22;23135;51.078;12.108;2023-12-20T03:11:48;4.90;99.90
37242;DHT22;23135;51.078;12.108;2023-12-20T03:14:13;4.90;99.90
37242;DHT22;23135;51.078;12.108;2023-12-20T03:16:39;4.90;99.90
37242;DHT22;23135;51.078;12.108;2023-12-20T03:19:05;4.90;99.90
37242;DHT22;23135;51.078;12.108;2023-12-20T03:21:30;4.90;99.90
37242;DHT22;23135;51.078;12.108;2023-12-20T03:23:56;4.90;99.90
37242;DHT22;23135;51.078;12.108;2023-12-20T03:26:21;4.90;99.90
37242;DHT22;23135;51.078;12.108;2023-12-20T03:28:48;4.90;99.90
37242;DHT22;23135;51.078;12.108;2023-12-20T03:31:14;4.90;99.90
37242;DHT22;23135;51.078;12.108;2023-12-20T03:33:40;4.90;99.90
37242;DHT22;23135;51.078;12.108;2023-12-20T03:36:06;4.90;99.90
37242;DHT22;23135;51.078;12.108;2023-12-20T03:38:31;4.90;99.90
37242;DHT22;23135;51.078;12.108;2023-12-20T03:40:57;4.90;99.90
37242;DHT22;23135;51.078;12.108;2023-12-20T03:43:22;4.90;99.90
37242;DHT22;23135;51.078;12.108;2023-12-20T03:45:48;4.90;99.90
37242;DHT22;23135;51.078;12.108;2023-12-20T03:48:13;4.90;99.90
37242;DHT22;23135;51.078;12.108;2023-12-20T03:50:39;4.80;99.90
37242;DHT22;23135;51.078;12.108;2023-12-20T03:53:04;4.90;99.90
37242;DHT22;23135;51.078;12.108;2023-12-20T03:55:30;4.90;99.90
37242;DHT22;23135;51.078;12.108;2023-12-20T03:57:55;4.90;99.90
37242;DHT22;23135;51.078;12.108;2023-12-20T04:00:21;4.90;99.90
37242;DHT22;23135;51.078;12.108;2023-12-20T04:02:46;4.90;99.90
37242;DHT22;23135;51.078;12.108;2023-12-20T04:05:12;4.90;99.90
37242;DHT22;23135;51.078;12.108;2023-12-20T04:07:38;4.90;99.90
37242;DHT22;23135;51.078;12.108;2023-12-20T04:10:04;4.90;99.90
37242;DHT22;23135;51.078;12.108;2023-12-20T04:12:30;4.90;99.90
37242;DHT22;23135;51.078;12.108;2023-12-20T04:14:56;4.90;99.90
37242;DHT22;23135;51.078;12.108;2023-12-20T04:17:22;4.90;99.90
37242;DHT22;23135;51.078;12.108;2023-12-20T04:19:48;4.90;99.90
37242;DHT22;23135;51.078;12.108;2023-12-20T04:22:14;5.00;99.90
37242;DHT22;23135;51.078;12.108;2023-12-20T04:24:40;4.90;99.90
37242;DHT22;23135;51.078;12.108;2023-12-20T04:27:07;5.00;99.90
37242;DHT22;23135;51.078;12.108;2023-12-20T04:29:33;5.00;99.90
37242;DHT22;23135;51.078;12.108;2023-12-20T04:31:59;5.00;99.90
37242;DHT22;23135;51.078;12.108;2023-12-20T04:34:24;5.00;99.90
37242;DHT22;23135;51.078;12.108;2023-12-20T04:36:50;5.00;99.90
37242;DHT22;23135;51.078;12.108;2023-12-20T04:39:15;5.00;99.90
37242;DHT22;23135;51.078;12.108;2023-12-20T04:41:41;5.00;99.90
37242;DHT22;23135;51.078;12.108;2023-12-20T04:44:07;5.00;99.90
37242;DHT22;23135;51.078;12.108;2023-12-20T04:46:32;5.00;99.90
37242;DHT22;23135;51.078;12.108;2023-12-20T04:48:58;5.00;99.90
37242;DHT22;23135;51.078;12.108;2023-12-20T04:51:23;5.00;99.90
37242;DHT22;23135;51.078;12.108;2023-12-20T04:53:49;5.00;99.90
37242;DHT22;23135;51.078;12.108;2023-12-20T04:56:15;5.00;99.90
37242;DHT22;23135;51.078;12.108;2023-12-20T04:58:40;5.00;99.90
37242;DHT22;23135;51.078;12.108;2023-12-20T05:01:08;5.00;99.90
37242;DHT22;23135;51.078;12.108;2023-12-20T05:03:34;5.10;99.90
37242;DHT22;23135;51.078;12.108;2023-12-20T05:05:59;5.10;99.90
37242;DHT22;23135;51.078;12.108;2023-12-20T05:08:25;5.10;99.90
37242;DHT22;23135;51.078;12.108;2023-12-20T05:10:52;5.10;99.90
37242;DHT22;23135;51.078;12.108;2023-12-20T05:13:18;5.10;99.90
37242;DHT22;23135;51.078;12.108;2023-12-20T05:15:43;5.20;99.90
37242;DHT22;23135;51.078;12.108;2023-12-20T05:18:09;5.10;99.90
37242;DHT22;23135;51.078;12.108;2023-12-20T05:20:34;5.10;99.90
37242;DHT22;23135;51.078;12.108;2023-12-20T05:23:00;5.20;99.90
37242;DHT22;23135;51.078;12.108;2023-12-20T05:25:26;5.20;99.90
37242;DHT22;23135;51.078;12.108;2023-12-20T05:27:52;5.20;99.90
37242;DHT22;23135;51.078;12.108;2023-12-20T05:30:17;5.20;99.90
37242;DHT22;23135;51.078;12.108;2023-12-20T05:32:43;5.20;99.90
37242;DHT22;23135;51.078;12.108;2023-12-20T05:35:08;5.20;99.90
37242;DHT22;23135;51.078;12.108;2023-12-20T05:37:34;5.20;99.90
37242;DHT22;23135;51.078;12.108;2023-12-20T05:40:00;5.20;99.90
37242;DHT22;23135;51.078;12.108;2023-12-20T05:42:25;5.30;99.90
37242;DHT22;23135;51.078;12.108;2023-12-20T05:44:51;5.20;99.90
37242;DHT22;23135;51.078;12.108;2023-12-20T05:47:16;5.20;99.90
37242;DHT22;23135;51.078;12.108;2023-12-20T05:49:43;5.20;99.90
37242;DHT22;23135;51.078;12.108;2023-12-20T05:52:09;5.20;99.90
37242;DHT22;23135;51.078;12.108;2023-12-20T05:54:34;5.20;99.90
37242;DHT22;23135;51.078;12.108;2023-12-20T05:57:00;5.10;99.90
37242;DHT22;23135;51.078;12.108;2023-12-20T05:59:26;5.10;99.90
37242;DHT22;23135;51.078;12.108;2023-12-20T06:01:51;5.10;99.90
37242;DHT22;23135;51.078;12.108;2023-12-20T06:04:17;5.10;99.90
37242;DHT22;23135;51.078;12.108;2023-12-20T06:06:43;5.10;99.90
37242;DHT22;23135;51.078;12.108;2023-12-20T06:09:09;5.10;99.90
37242;DHT22;23135;51.078;12.108;2023-12-20T06:11:34;5.10;99.90
37242;DHT22;23135;51.078;12.108;2023-12-20T06:14:00;5.10;99.90
37242;DHT22;23135;51.078;12.108;2023-12-20T06:16:25;5.10;99.90
37242;DHT22;23135;51.078;12.108;2023-12-20T06:18:51;5.10;99.90
37242;DHT22;23135;51.078;12.108;2023-12-20T06:21:16;5.10;99.90
37242;DHT22;23135;51.078;12.108;2023-12-20T06:23:42;5.10;99.90
37242;DHT22;23135;51.078;12.108;2023-12-20T06:26:07;5.10;99.90
37242;DHT22;23135;51.078;12.108;2023-12-20T06:28:33;5.10;99.90
37242;DHT22;23135;51.078;12.108;2023-12-20T06:30:59;5.10;99.90
37242;DHT22;23135;51.078;12.108;2023-12-20T06:33:26;5.00;99.90
37242;DHT22;23135;51.078;12.108;2023-12-20T06:35:51;5.00;99.90
37242;DHT22;23135;51.078;12.108;2023-12-20T06:38:18;5.00;99.90
37242;DHT22;23135;51.078;12.108;2023-12-20T06:40:45;5.00;99.90
37242;DHT22;23135;51.078;12.108;2023-12-20T06:43:12;5.00;99.90
37242;DHT22;23135;51.078;12.108;2023-12-20T06:45:38;5.00;99.90
37242;DHT22;23135;51.078;12.108;2023-12-20T06:48:04;5.10;99.90
37242;DHT22;23135;51.078;12.108;2023-12-20T06:50:30;5.10;99.90
37242;DHT22;23135;51.078;12.108;2023-12-20T06:52:56;5.10;99.90
37242;DHT22;23135;51.078;12.108;2023-12-20T06:55:21;5.10;99.90
37242;DHT22;23135;51.078;12.108;2023-12-20T06:57:47;5.10;99.90
37242;DHT22;23135;51.078;12.108;2023-12-20T07:00:13;5.10;99.90
37242;DHT22;23135;51.078;12.108;2023-12-20T07:02:38;5.10;99.90
37242;DHT22;23135;51.078;12.108;2023-12-20T07:05:04;5.10;99.90
37242;DHT22;23135;51.078;12.108;2023-12-20T07:07:30;5.00;99.90
37242;DHT22;23135;51.078;12.108;2023-12-20T07:09:56;5.00;99.90
37242;DHT22;23135;51.078;12.108;2023-12-20T07:12:21;4.90;99.90
37242;DHT22;23135;51.078;12.108;2023-12-20T07:14:47;4.90;99.90
37242;DHT22;23135;51.078;12.108;2023-12-20T07:17:13;4.80;99.90
37242;DHT22;23135;51.078;12.108;2023-12-20T07:19:40;4.80;99.90
37242;DHT22;23135;51.078;12.108;2023-12-20T07:22:07;4.70;99.90
37242;DHT22;23135;51.078;12.108;2023-12-20T07:24:32;4.60;99.90
37242;DHT22;23135;51.078;12.108;2023-12-20T07:27:02;4.60;99.90
37242;DHT22;23135;51.078;12.108;2023-12-20T07:29:27;4.70;99.90
37242;DHT22;23135;51.078;12.108;2023-12-20T07:31:53;4.70;99.90
37242;DHT22;23135;51.078;12.108;2023-12-20T07:34:20;4.70;99.90
37242;DHT22;23135;51.078;12.108;2023-12-20T07:36:46;4.80;99.90
37242;DHT22;23135;51.078;12.108;2023-12-20T07:39:11;4.80;99.90
37242;DHT22;23135;51.078;12.108;2023-12-20T07:41:37;4.90;99.90
37242;DHT22;23135;51.078;12.108;2023-12-20T07:44:04;4.90;99.90
37242;DHT22;23135;51.078;12.108;2023-12-20T07:46:30;5.00;99.90
37242;DHT22;23135;51.078;12.108;2023-12-20T07:48:55;5.00;99.90
37242;DHT22;23135;51.078;12.108;2023-12-20T07:51:21;5.20;99.90
37242;DHT22;23135;51.078;12.108;2023-12-20T07:53:46;5.30;99.90
37242;DHT22;23135;51.078;12.108;2023-12-20T07:56:19;5.40;99.90
37242;DHT22;23135;51.078;12.108;2023-12-20T07:58:45;5.40;99.90
37242;DHT22;23135;51.078;12.108;2023-12-20T08:01:11;5.40;99.90
37242;DHT22;23135;51.078;12.108;2023-12-20T08:03:37;5.40;99.90
37242;DHT22;23135;51.078;12.108;2023-12-20T08:06:03;5.50;99.90
37242;DHT22;23135;51.078;12.108;2023-12-20T08:08:28;5.50;99.90
37242;DHT22;23135;51.078;12.108;2023-12-20T08:10:54;5.50;99.90
37242;DHT22;23135;51.078;12.108;2023-12-20T08:13:19;5.40;99.90
37242;DHT22;23135;51.078;12.108;2023-12-20T08:15:45;5.40;99.90
37242;DHT22;23135;51.078;12.108;2023-12-20T08:18:11;5.40;99.90
37242;DHT22;23135;51.078;12.108;2023-12-20T08:20:36;5.40;99.90
37242;DHT22;23135;51.078;12.108;2023-12-20T08:23:02;5.30;99.90
37242;DHT22;23135;51.078;12.108;2023-12-20T08:25:28;5.40;99.90
37242;DHT22;23135;51.078;12.108;2023-12-20T08:27:53;5.40;99.90
37242;DHT22;23135;51.078;12.108;2023-12-20T08:30:19;5.40;99.90
37242;DHT22;23135;51.078;12.108;2023-12-20T08:32:48;5.40;99.90
37242;DHT22;23135;51.078;12.108;2023-12-20T08:35:13;5.50;99.90
37242;DHT22;23135;51.078;12.108;2023-12-20T08:37:39;5.60;99.90
37242;DHT22;23135;51.078;12.108;2023-12-20T08:40:05;5.70;99.90
37242;DHT22;23135;51.078;12.108;2023-12-20T08:42:31;5.80;99.90
37242;DHT22;23135;51.078;12.108;2023-12-20T08:44:57;5.80;99.90
37242;DHT22;23135;51.078;12.108;2023-12-20T08:47:24;5.80;99.90
37242;DHT22;23135;51.078;12.108;2023-12-20T08:49:49;5.80;99.90
37242;DHT22;23135;51.078;12.108;2023-12-20T08:52:15;5.80;99.90
37242;DHT22;23135;51.078;12.108;2023-12-20T08:54:41;5.80;99.90
37242;DHT22;23135;51.078;12.108;2023-12-20T08:57:06;5.80;99.90
37242;DHT22;23135;51.078;12.108;2023-12-20T08:59:32;5.80;99.90
37242;DHT22;23135;51.078;12.108;2023-12-20T09:01:58;5.70;99.90
37242;DHT22;23135;51.078;12.108;2023-12-20T09:04:23;5.70;99.90
37242;DHT22;23135;51.078;12.108;2023-12-20T09:06:49;5.70;99.90
37242;DHT22;23135;51.078;12.108;2023-12-20T09:09:15;5.80;99.90
37242;DHT22;23135;51.078;12.108;2023-12-20T09:11:41;5.90;99.90
37242;DHT22;23135;51.078;12.108;2023-12-20T09:14:07;6.00;99.90
37242;DHT22;23135;51.078;12.108;2023-12-20T09:16:33;6.00;99.90
37242;DHT22;23135;51.078;12.108;2023-12-20T09:18:58;6.10;99.90
37242;DHT22;23135;51.078;12.108;2023-12-20T09:21:24;6.20;99.90
37242;DHT22;23135;51.078;12.108;2023-12-20T09:23:50;6.20;99.90
37242;DHT22;23135;51.078;12.108;2023-12-20T09:26:15;6.20;99.90
37242;DHT22;23135;51.078;12.108;2023-12-20T09:28:41;6.30;99.90
37242;DHT22;23135;51.078;12.108;2023-12-20T09:31:07;6.20;99.90
37242;DHT22;23135;51.078;12.108;2023-12-20T09:33:35;6.20;99.90
37242;DHT22;23135;51.078;12.108;2023-12-20T09:36:01;6.20;99.90
37242;DHT22;23135;51.078;12.108;2023-12-20T09:38:26;6.20;99.90
37242;DHT22;23135;51.078;12.108;2023-12-20T09:40:52;6.20;99.90
37242;DHT22;23135;51.078;12.108;2023-12-20T09:43:20;6.30;99.90
37242;DHT22;23135;51.078;12.108;2023-12-20T09:45:47;6.40;99.90
37242;DHT22;23135;51.078;12.108;2023-12-20T09:48:13;6.40;99.90
37242;DHT22;23135;51.078;12.108;2023-12-20T09:50:41;6.40;99.90
37242;DHT22;23135;51.078;12.108;2023-12-20T09:53:08;6.50;99.90
37242;DHT22;23135;51.078;12.108;2023-12-20T09:55:36;6.50;99.90
37242;DHT22;23135;51.078;12.108;2023-12-20T09:58:02;6.50;99.90
37242;DHT22;23135;51.078;12.108;2023-12-20T10:00:28;6.50;99.90
37242;DHT22;23135;51.078;12.108;2023-12-20T10:02:57;6.50;99.90
37242;DHT22;23135;51.078;12.108;2023-12-20T10:05:31;6.60;99.90
37242;DHT22;23135;51.078;12.108;2023-12-20T10:07:58;6.60;99.90
37242;DHT22;23135;51.078;12.108;2023-12-20T10:10:25;6.60;99.90
37242;DHT22;23135;51.078;12.108;2023-12-20T10:13:05;6.70;99.90
37242;DHT22;23135;51.078;12.108;2023-12-20T10:15:35;6.70;99.90
37242;DHT22;23135;51.078;12.108;2023-12-20T10:18:02;6.70;99.90
37242;DHT22;23135;51.078;12.108;2023-12-20T10:20:28;6.70;99.90
37242;DHT22;23135;51.078;12.108;2023-12-20T10:22:57;6.70;99.90
37242;DHT22;23135;51.078;12.108;2023-12-20T10:25:24;6.80;99.90
37242;DHT22;23135;51.078;12.108;2023-12-20T10:28:08;6.80;99.90
37242;DHT22;23135;51.078;12.108;2023-12-20T10:30:33;6.80;99.90
37242;DHT22;23135;51.078;12.108;2023-12-20T10:32:59;6.80;99.90
37242;DHT22;23135;51.078;12.108;2023-12-20T10:35:25;6.90;99.90
37242;DHT22;23135;51.078;12.108;2023-12-20T10:37:54;6.90;99.90
37242;DHT22;23135;51.078;12.108;2023-12-20T10:40:21;7.00;99.90
37242;DHT22;23135;51.078;12.108;2023-12-20T10:42:47;7.00;99.90
37242;DHT22;23135;51.078;12.108;2023-12-20T10:45:13;7.00;99.90
37242;DHT22;23135;51.078;12.108;2023-12-20T10:47:41;6.90;99.90
37242;DHT22;23135;51.078;12.108;2023-12-20T10:50:07;7.10;99.90
37242;DHT22;23135;51.078;12.108;2023-12-20T10:52:34;7.00;99.90
37242;DHT22;23135;51.078;12.108;2023-12-20T10:55:01;6.90;99.90
37242;DHT22;23135;51.078;12.108;2023-12-20T10:57:27;6.90;99.90
37242;DHT22;23135;51.078;12.108;2023-12-20T10:59:54;6.90;99.90
37242;DHT22;23135;51.078;12.108;2023-12-20T11:02:22;7.00;99.90
37242;DHT22;23135;51.078;12.108;2023-12-20T11:07:33;7.20;99.90
37242;DHT22;23135;51.078;12.108;2023-12-20T11:10:10;7.20;99.90
37242;DHT22;23135;51.078;12.108;2023-12-20T11:15:26;7.30;99.90
37242;DHT22;23135;51.078;12.108;2023-12-20T11:17:56;7.40;99.90
37242;DHT22;23135;51.078;12.108;2023-12-20T11:20:39;7.40;99.90
37242;DHT22;23135;51.078;12.108;2023-12-20T11:23:06;7.50;99.90
37242;DHT22;23135;51.078;12.108;2023-12-20T11:25:52;7.60;99.90
37242;DHT22;23135;51.078;12.108;2023-12-20T11:28:21;7.70;99.90
37242;DHT22;23135;51.078;12.108;2023-12-20T11:30:53;7.80;99.90
37242;DHT22;23135;51.078;12.108;2023-12-20T11:33:24;7.80;99.90
37242;DHT22;23135;51.078;12.108;2023-12-20T11:35:50;7.70;99.90
37242;DHT22;23135;51.078;12.108;2023-12-20T11:38:16;7.70;99.90
37242;DHT22;23135;51.078;12.108;2023-12-20T11:40:42;7.80;99.90
37242;DHT22;23135;51.078;12.108;2023-12-20T11:43:08;7.70;99.90
37242;DHT22;23135;51.078;12.108;2023-12-20T11:45:34;7.80;99.90
37242;DHT22;23135;51.078;12.108;2023-12-20T11:48:03;7.60;99.90
37242;DHT22;23135;51.078;12.108;2023-12-20T11:50:29;7.70;99.90
37242;DHT22;23135;51.078;12.108;2023-12-20T11:52:56;7.70;99.90
37242;DHT22;23135;51.078;12.108;2023-12-20T11:55:23;7.60;99.90
37242;DHT22;23135;51.078;12.108;2023-12-20T11:57:52;7.70;99.90
37242;DHT22;23135;51.078;12.108;2023-12-20T12:00:18;7.60;99.90
37242;DHT22;23135;51.078;12.108;2023-12-20T12:02:55;7.60;99.90
37242;DHT22;23135;51.078;12.108;2023-12-20T12:05:21;7.70;99.90
37242;DHT22;23135;51.078;12.108;2023-12-20T12:07:47;7.90;99.90
37242;DHT22;23135;51.078;12.108;2023-12-20T12:10:13;8.00;99.90
37242;DHT22;23135;51.078;12.108;2023-12-20T12:12:51;7.90;99.90
37242;DHT22;23135;51.078;12.108;2023-12-20T12:15:17;7.90;99.90
37242;DHT22;23135;51.078;12.108;2023-12-20T12:17:43;7.80;99.90
37242;DHT22;23135;51.078;12.108;2023-12-20T12:20:09;7.60;99.90
37242;DHT22;23135;51.078;12.108;2023-12-20T12:22:35;7.40;99.90
37242;DHT22;23135;51.078;12.108;2023-12-20T12:25:12;7.30;99.90
37242;DHT22;23135;51.078;12.108;2023-12-20T12:27:42;7.50;99.90
37242;DHT22;23135;51.078;12.108;2023-12-20T12:30:09;7.30;99.90
37242;DHT22;23135;51.078;12.108;2023-12-20T12:32:35;7.20;99.90
37242;DHT22;23135;51.078;12.108;2023-12-20T12:35:04;7.40;99.90
37242;DHT22;23135;51.078;12.108;2023-12-20T12:37:33;7.80;99.90
37242;DHT22;23135;51.078;12.108;2023-12-20T12:39:59;7.80;99.90
37242;DHT22;23135;51.078;12.108;2023-12-20T12:42:24;7.90;99.90
37242;DHT22;23135;51.078;12.108;2023-12-20T12:44:54;8.00;99.90
37242;DHT22;23135;51.078;12.108;2023-12-20T12:47:20;8.10;99.90
37242;DHT22;23135;51.078;12.108;2023-12-20T12:49:45;7.90;99.90
37242;DHT22;23135;51.078;12.108;2023-12-20T12:52:11;8.00;99.90
37242;DHT22;23135;51.078;12.108;2023-12-20T12:54:36;7.90;99.90
37242;DHT22;23135;51.078;12.108;2023-12-20T12:57:03;8.00;99.90
37242;DHT22;23135;51.078;12.108;2023-12-20T12:59:29;8.10;99.90
37242;DHT22;23135;51.078;12.108;2023-12-20T13:01:54;8.10;99.90
37242;DHT22;23135;51.078;12.108;2023-12-20T13:04:20;8.20;99.90
37242;DHT22;23135;51.078;12.108;2023-12-20T13:06:46;8.30;99.90
37242;DHT22;23135;51.078;12.108;2023-12-20T13:09:12;8.20;99.90
37242;DHT22;23135;51.078;12.108;2023-12-20T13:11:38;8.30;99.90
37242;DHT22;23135;51.078;12.108;2023-12-20T13:14:04;8.30;99.90
37242;DHT22;23135;51.078;12.108;2023-12-20T13:16:29;8.30;99.90
37242;DHT22;23135;51.078;12.108;2023-12-20T13:18:55;8.30;99.90
37242;DHT22;23135;51.078;12.108;2023-12-20T13:21:21;8.40;99.90
37242;DHT22;23135;51.078;12.108;2023-12-20T13:23:47;8.30;99.90
37242;DHT22;23135;51.078;12.108;2023-12-20T13:26:12;8.20;99.90
37242;DHT22;23135;51.078;12.108;2023-12-20T13:28:38;8.20;99.90
37242;DHT22;23135;51.078;12.108;2023-12-20T13:31:04;8.30;99.90
37242;DHT22;23135;51.078;12.108;2023-12-20T13:33:29;8.30;99.90
37242;DHT22;23135;51.078;12.108;2023-12-20T13:35:55;8.30;99.90
37242;DHT22;23135;51.078;12.108;2023-12-20T13:38:21;8.20;99.90
37242;DHT22;23135;51.078;12.108;2023-12-20T13:40:47;8.30;99.90
37242;DHT22;23135;51.078;12.108;2023-12-20T13:43:13;8.20;99.90
37242;DHT22;23135;51.078;12.108;2023-12-20T13:45:39;8.20;99.90
37242;DHT22;23135;51.078;12.108;2023-12-20T13:48:05;7.90;99.90
37242;DHT22;23135;51.078;12.108;2023-12-20T13:50:30;7.50;99.90
37242;DHT22;23135;51.078;12.108;2023-12-20T13:52:56;7.20;99.90
37242;DHT22;23135;51.078;12.108;2023-12-20T13:55:22;7.10;99.90
37242;DHT22;23135;51.078;12.108;2023-12-20T13:57:50;6.90;99.90
37242;DHT22;23135;51.078;12.108;2023-12-20T14:00:16;6.90;99.90
37242;DHT22;23135;51.078;12.108;2023-12-20T14:02:42;6.80;99.90
37242;DHT22;23135;51.078;12.108;2023-12-20T14:05:09;6.80;99.90
37242;DHT22;23135;51.078;12.108;2023-12-20T14:07:35;6.80;99.90
37242;DHT22;23135;51.078;12.108;2023-12-20T14:10:01;6.80;99.90
37242;DHT22;23135;51.078;12.108;2023-12-20T14:12:26;6.80;99.90
37242;DHT22;23135;51.078;12.108;2023-12-20T14:14:52;6.70;99.90
37242;DHT22;23135;51.078;12.108;2023-12-20T14:17:18;6.70;99.90
37242;DHT22;23135;51.078;12.108;2023-12-20T14:19:43;6.60;99.90
37242;DHT22;23135;51.078;12.108;2023-12-20T14:22:09;6.60;99.90
37242;DHT22;23135;51.078;12.108;2023-12-20T14:24:37;6.60;99.90
37242;DHT22;23135;51.078;12.108;2023-12-20T14:27:03;6.70;99.90
37242;DHT22;23135;51.078;12.108;2023-12-20T14:29:29;6.60;99.90
37242;DHT22;23135;51.078;12.108;2023-12-20T14:31:54;6.60;99.90
37242;DHT22;23135;51.078;12.108;2023-12-20T14:34:20;6.70;99.90
37242;DHT22;23135;51.078;12.108;2023-12-20T14:36:45;6.60;99.90
37242;DHT22;23135;51.078;12.108;2023-12-20T14:39:11;6.60;99.90
37242;DHT22;23135;51.078;12.108;2023-12-20T14:41:38;6.60;99.90
37242;DHT22;23135;51.078;12.108;2023-12-20T14:44:05;6.60;99.90
37242;DHT22;23135;51.078;12.108;2023-12-20T14:46:31;6.60;99.90
37242;DHT22;23135;51.078;12.108;2023-12-20T14:48:56;6.60;99.90
37242;DHT22;23135;51.078;12.108;2023-12-20T14:51:22;6.60;99.90
37242;DHT22;23135;51.078;12.108;2023-12-20T14:53:48;6.60;99.90
37242;DHT22;23135;51.078;12.108;2023-12-20T14:56:13;6.60;99.90
37242;DHT22;23135;51.078;12.108;2023-12-20T14:58:40;6.60;99.90
37242;DHT22;23135;51.078;12.108;2023-12-20T15:01:05;6.60;99.90
37242;DHT22;23135;51.078;12.108;2023-12-20T15:03:34;6.60;99.90
37242;DHT22;23135;51.078;12.108;2023-12-20T15:06:00;6.60;99.90
37242;DHT22;23135;51.078;12.108;2023-12-20T15:08:26;6.50;99.90
37242;DHT22;23135;51.078;12.108;2023-12-20T15:10:51;6.50;99.90
37242;DHT22;23135;51.078;12.108;2023-12-20T15:13:17;6.50;99.90
37242;DHT22;23135;51.078;12.108;2023-12-20T15:15:43;6.50;99.90
37242;DHT22;23135;51.078;12.108;2023-12-20T15:18:08;6.50;99.90
37242;DHT22;23135;51.078;12.108;2023-12-20T15:20:34;6.50;99.90
37242;DHT22;23135;51.078;12.108;2023-12-20T15:23:02;6.40;99.90
37242;DHT22;23135;51.078;12.108;2023-12-20T15:25:31;6.40;99.90
37242;DHT22;23135;51.078;12.108;2023-12-20T15:27:57;6.30;99.90
37242;DHT22;23135;51.078;12.108;2023-12-20T15:30:22;6.30;99.90